sensor_id;sensor_type;location;lat;lon;timestamp;temperature;humidity
2571;DHT22;1295;51.130;6.732;2022-10-04T00:00:40;14.80;99.90
2571;DHT22;1295;51.130;6.732;2022-10-04T00:03:09;14.70;99.90
2571;DHT22;1295;51.130;6.732;2022-10-04T00:05:33;14.70;99.90
2571;DHT22;1295;51.130;6.732;2022-10-04T00:08:03;14.70;99.90
2571;DHT22;1295;51.130;6.732;2022-10-04T00:10:28;14.70;99.90
2571;DHT22;1295;51.130;6.732;2022-10-04T00:12:52;14.70;99.90
2571;DHT22;1295;51.130;6.732;2022-10-04T00:15:21;14.70;99.90
2571;DHT22;1295;51.130;6.732;2022-10-04T00:17:53;14.70;99.90
2571;DHT22;1295;51.130;6.732;2022-10-04T00:23:20;14.70;99.90
2571;DHT22;1295;51.130;6.732;2022-10-04T00:25:19;14.70;99.90
2571;DHT22;1295;51.130;6.732;2022-10-04T00:30:23;14.60;99.90
2571;DHT22;1295;51.130;6.732;2022-10-04T00:32:59;14.70;99.90
2571;DHT22;1295;51.130;6.732;2022-10-04T00:35:46;14.60;99.90
2571;DHT22;1295;51.130;6.732;2022-10-04T00:38:13;14.60;99.90
2571;DHT22;1295;51.130;6.732;2022-10-04T00:40:49;14.60;99.90
2571;DHT22;1295;51.130;6.732;2022-10-04T00:43:16;14.60;99.90
2571;DHT22;1295;51.130;6.732;2022-10-04T00:45:46;14.60;99.90
2571;DHT22;1295;51.130;6.732;2022-10-04T00:48:22;14.60;99.90
2571;DHT22;1295;51.130;6.732;2022-10-04T00:50:44;14.60;99.90
2571;DHT22;1295;51.130;6.732;2022-10-04T00:54:36;14.60;99.90
2571;DHT22;1295;51.130;6.732;2022-10-04T00:56:12;14.60;99.90
2571;DHT22;1295;51.130;6.732;2022-10-04T00:58:44;14.60;99.90
2571;DHT22;1295;51.130;6.732;2022-10-04T01:01:04;14.60;99.90
2571;DHT22;1295;51.130;6.732;2022-10-04T01:03:33;14.60;99.90
2571;DHT22;1295;51.130;6.732;2022-10-04T01:06:00;14.50;99.90
2571;DHT22;1295;51.130;6.732;2022-10-04T01:08:27;14.50;99.90
2571;DHT22;1295;51.130;6.732;2022-10-04T01:10:54;14.60;99.90
2571;DHT22;1295;51.130;6.732;2022-10-04T01:13:20;14.50;99.90
2571;DHT22;1295;51.130;6.732;2022-10-04T01:15:54;14.50;99.90
2571;DHT22;1295;51.130;6.732;2022-10-04T01:18:27;14.50;99.90
2571;DHT22;1295;51.130;6.732;2022-10-04T01:21:02;14.50;99.90
2571;DHT22;1295;51.130;6.732;2022-10-04T01:28:50;14.50;99.90
2571;DHT22;1295;51.130;6.732;2022-10-04T01:31:16;14.50;99.90
2571;DHT22;1295;51.130;6.732;2022-10-04T01:33:41;14.50;99.90
2571;DHT22;1295;51.130;6.732;2022-10-04T01:36:07;14.50;99.90
2571;DHT22;1295;51.130;6.732;2022-10-04T01:38:33;14.50;99.90
2571;DHT22;1295;51.130;6.732;2022-10-04T01:40:58;14.40;99.90
2571;DHT22;1295;51.130;6.732;2022-10-04T01:43:26;14.40;99.90
2571;DHT22;1295;51.130;6.732;2022-10-04T01:45:52;14.40;99.90
2571;DHT22;1295;51.130;6.732;2022-10-04T01:48:20;14.40;99.90
2571;DHT22;1295;51.130;6.732;2022-10-04T01:50:46;14.40;99.90
2571;DHT22;1295;51.130;6.732;2022-10-04T01:53:17;14.40;99.90
2571;DHT22;1295;51.130;6.732;2022-10-04T01:55:40;14.40;99.90
2571;DHT22;1295;51.130;6.732;2022-10-04T01:58:08;14.40;99.90
2571;DHT22;1295;51.130;6.732;2022-10-04T02:00:32;14.40;99.90
2571;DHT22;1295;51.130;6.732;2022-10-04T02:03:01;14.40;99.90
2571;DHT22;1295;51.130;6.732;2022-10-04T02:05:29;14.40;99.90
2571;DHT22;1295;51.130;6.732;2022-10-04T02:07:54;14.40;99.90
2571;DHT22;1295;51.130;6.732;2022-10-04T02:10:19;14.40;99.90
2571;DHT22;1295;51.130;6.732;2022-10-04T02:12:47;14.40;99.90
2571;DHT22;1295;51.130;6.732;2022-10-04T02:15:11;14.30;99.90
2571;DHT22;1295;51.130;6.732;2022-10-04T02:17:38;14.30;99.90
2571;DHT22;1295;51.130;6.732;2022-10-04T02:20:07;14.30;99.90
2571;DHT22;1295;51.130;6.732;2022-10-04T02:22:30;14.30;99.90
2571;DHT22;1295;51.130;6.732;2022-10-04T02:24:56;14.30;99.90
2571;DHT22;1295;51.130;6.732;2022-10-04T02:27:25;14.30;99.90
2571;DHT22;1295;51.130;6.732;2022-10-04T02:29:50;14.30;99.90
2571;DHT22;1295;51.130;6.732;2022-10-04T02:32:16;14.30;99.90
2571;DHT22;1295;51.130;6.732;2022-10-04T02:34:47;14.30;99.90
2571;DHT22;1295;51.130;6.732;2022-10-04T02:37:14;14.30;99.90
2571;DHT22;1295;51.130;6.732;2022-10-04T02:39:43;14.20;99.90
2571;DHT22;1295;51.130;6.732;2022-10-04T02:42:13;14.20;99.90
2571;DHT22;1295;51.130;6.732;2022-10-04T02:44:43;14.20;99.90
2571;DHT22;1295;51.130;6.732;2022-10-04T02:47:19;14.20;99.90
2571;DHT22;1295;51.130;6.732;2022-10-04T02:49:45;14.30;99.90
2571;DHT22;1295;51.130;6.732;2022-10-04T02:52:25;14.20;99.90
2571;DHT22;1295;51.130;6.732;2022-10-04T02:55:24;14.20;99.90
2571;DHT22;1295;51.130;6.732;2022-10-04T02:57:33;14.20;99.90
2571;DHT22;1295;51.130;6.732;2022-10-04T03:00:33;14.20;99.90
2571;DHT22;1295;51.130;6.732;2022-10-04T03:03:06;14.20;99.90
2571;DHT22;1295;51.130;6.732;2022-10-04T03:05:08;14.20;99.90
2571;DHT22;1295;51.130;6.732;2022-10-04T03:07:33;14.20;99.90
2571;DHT22;1295;51.130;6.732;2022-10-04T03:09:59;14.20;99.90
2571;DHT22;1295;51.130;6.732;2022-10-04T03:12:24;14.20;99.90
2571;DHT22;1295;51.130;6.732;2022-10-04T03:14:51;14.20;99.90
2571;DHT22;1295;51.130;6.732;2022-10-04T03:17:15;14.20;99.90
2571;DHT22;1295;51.130;6.732;2022-10-04T03:19:41;14.20;99.90
2571;DHT22;1295;51.130;6.732;2022-10-04T03:22:07;14.10;99.90
2571;DHT22;1295;51.130;6.732;2022-10-04T03:24:33;14.10;99.90
2571;DHT22;1295;51.130;6.732;2022-10-04T03:26:59;14.10;99.90
2571;DHT22;1295;51.130;6.732;2022-10-04T03:29:26;14.10;99.90
2571;DHT22;1295;51.130;6.732;2022-10-04T03:31:50;14.10;99.90
2571;DHT22;1295;51.130;6.732;2022-10-04T03:34:17;14.10;99.90
2571;DHT22;1295;51.130;6.732;2022-10-04T03:36:42;14.10;99.90
2571;DHT22;1295;51.130;6.732;2022-10-04T03:39:08;14.00;99.90
2571;DHT22;1295;51.130;6.732;2022-10-04T03:41:33;14.10;99.90
2571;DHT22;1295;51.130;6.732;2022-10-04T03:43:59;14.10;99.90
2571;DHT22;1295;51.130;6.732;2022-10-04T03:46:26;14.10;99.90
2571;DHT22;1295;51.130;6.732;2022-10-04T03:48:52;14.00;99.90
2571;DHT22;1295;51.130;6.732;2022-10-04T03:51:21;14.00;99.90
2571;DHT22;1295;51.130;6.732;2022-10-04T03:53:45;14.00;99.90
2571;DHT22;1295;51.130;6.732;2022-10-04T03:56:14;14.00;99.90
2571;DHT22;1295;51.130;6.732;2022-10-04T03:58:37;14.00;99.90
2571;DHT22;1295;51.130;6.732;2022-10-04T04:01:11;14.00;99.90
2571;DHT22;1295;51.130;6.732;2022-10-04T04:03:51;14.00;99.90
2571;DHT22;1295;51.130;6.732;2022-10-04T04:06:14;14.00;99.90
2571;DHT22;1295;51.130;6.732;2022-10-04T04:08:40;14.00;99.90
2571;DHT22;1295;51.130;6.732;2022-10-04T04:11:04;14.00;99.90
2571;DHT22;1295;51.130;6.732;2022-10-04T04:13:57;14.00;99.90
2571;DHT22;1295;51.130;6.732;2022-10-04T04:16:21;14.00;99.90
2571;DHT22;1295;51.130;6.732;2022-10-04T04:18:47;13.90;99.90
2571;DHT22;1295;51.130;6.732;2022-10-04T04:21:13;13.60;99.90
2571;DHT22;1295;51.130;6.732;2022-10-04T04:23:40;13.90;99.90
2571;DHT22;1295;51.130;6.732;2022-10-04T04:26:19;13.90;99.90
2571;DHT22;1295;51.130;6.732;2022-10-04T04:28:44;13.90;99.90
2571;DHT22;1295;51.130;6.732;2022-10-04T04:31:18;13.90;99.90
2571;DHT22;1295;51.130;6.732;2022-10-04T04:33:44;13.90;99.90
2571;DHT22;1295;51.130;6.732;2022-10-04T04:36:10;13.90;99.90
2571;DHT22;1295;51.130;6.732;2022-10-04T04:38:36;13.90;99.90
2571;DHT22;1295;51.130;6.732;2022-10-04T04:41:06;13.90;99.90
2571;DHT22;1295;51.130;6.732;2022-10-04T04:43:31;13.90;99.90
2571;DHT22;1295;51.130;6.732;2022-10-04T04:45:57;13.90;99.90
2571;DHT22;1295;51.130;6.732;2022-10-04T04:48:23;13.90;99.90
2571;DHT22;1295;51.130;6.732;2022-10-04T04:50:51;13.80;99.90
2571;DHT22;1295;51.130;6.732;2022-10-04T04:53:16;13.80;99.90
2571;DHT22;1295;51.130;6.732;2022-10-04T04:55:41;13.90;99.90
2571;DHT22;1295;51.130;6.732;2022-10-04T04:58:09;13.80;99.90
2571;DHT22;1295;51.130;6.732;2022-10-04T05:00:33;13.80;99.90
2571;DHT22;1295;51.130;6.732;2022-10-04T05:02:59;13.80;99.90
2571;DHT22;1295;51.130;6.732;2022-10-04T05:05:27;13.80;99.90
2571;DHT22;1295;51.130;6.732;2022-10-04T05:08:03;13.40;99.90
2571;DHT22;1295;51.130;6.732;2022-10-04T05:10:29;13.50;99.90
2571;DHT22;1295;51.130;6.732;2022-10-04T05:12:54;13.70;99.90
2571;DHT22;1295;51.130;6.732;2022-10-04T05:15:19;13.70;99.90
2571;DHT22;1295;51.130;6.732;2022-10-04T05:17:45;13.80;99.90
2571;DHT22;1295;51.130;6.732;2022-10-04T05:20:16;13.80;99.90
2571;DHT22;1295;51.130;6.732;2022-10-04T05:22:42;13.80;99.90
2571;DHT22;1295;51.130;6.732;2022-10-04T05:25:11;13.80;99.90
2571;DHT22;1295;51.130;6.732;2022-10-04T05:27:35;13.80;99.90
2571;DHT22;1295;51.130;6.732;2022-10-04T05:30:40;13.80;99.90
2571;DHT22;1295;51.130;6.732;2022-10-04T05:33:06;13.70;99.90
2571;DHT22;1295;51.130;6.732;2022-10-04T05:35:40;13.70;99.90
2571;DHT22;1295;51.130;6.732;2022-10-04T05:38:12;13.70;99.90
2571;DHT22;1295;51.130;6.732;2022-10-04T05:40:52;13.70;99.90
2571;DHT22;1295;51.130;6.732;2022-10-04T05:48:32;13.70;99.90
2571;DHT22;1295;51.130;6.732;2022-10-04T05:50:57;13.70;99.90
2571;DHT22;1295;51.130;6.732;2022-10-04T05:53:31;13.70;99.90
2571;DHT22;1295;51.130;6.732;2022-10-04T05:58:50;13.70;99.90
2571;DHT22;1295;51.130;6.732;2022-10-04T06:01:22;13.70;99.90
2571;DHT22;1295;51.130;6.732;2022-10-04T06:06:47;13.60;99.90
2571;DHT22;1295;51.130;6.732;2022-10-04T06:09:24;13.60;99.90
2571;DHT22;1295;51.130;6.732;2022-10-04T06:11:57;13.60;99.90
2571;DHT22;1295;51.130;6.732;2022-10-04T06:14:45;13.60;99.90
2571;DHT22;1295;51.130;6.732;2022-10-04T06:17:28;13.60;99.90
2571;DHT22;1295;51.130;6.732;2022-10-04T06:20:26;13.60;99.90
2571;DHT22;1295;51.130;6.732;2022-10-04T06:22:49;13.60;99.90
2571;DHT22;1295;51.130;6.732;2022-10-04T06:25:22;13.60;99.90
2571;DHT22;1295;51.130;6.732;2022-10-04T06:28:21;13.50;99.90
2571;DHT22;1295;51.130;6.732;2022-10-04T06:30:58;13.60;99.90
2571;DHT22;1295;51.130;6.732;2022-10-04T06:33:22;13.60;99.90
2571;DHT22;1295;51.130;6.732;2022-10-04T06:35:52;13.60;99.90
2571;DHT22;1295;51.130;6.732;2022-10-04T06:41:33;13.30;99.90
2571;DHT22;1295;51.130;6.732;2022-10-04T06:46:41;13.50;99.90
2571;DHT22;1295;51.130;6.732;2022-10-04T06:49:25;13.30;99.90
2571;DHT22;1295;51.130;6.732;2022-10-04T06:52:02;13.40;99.90
2571;DHT22;1295;51.130;6.732;2022-10-04T06:54:50;13.50;99.90
2571;DHT22;1295;51.130;6.732;2022-10-04T06:57:35;13.50;99.90
2571;DHT22;1295;51.130;6.732;2022-10-04T07:00:03;13.30;99.90
2571;DHT22;1295;51.130;6.732;2022-10-04T07:02:31;13.20;99.90
2571;DHT22;1295;51.130;6.732;2022-10-04T07:04:56;13.10;99.90
2571;DHT22;1295;51.130;6.732;2022-10-04T07:07:24;13.40;99.90
2571;DHT22;1295;51.130;6.732;2022-10-04T07:09:50;13.30;99.90
2571;DHT22;1295;51.130;6.732;2022-10-04T07:12:14;13.40;99.90
2571;DHT22;1295;51.130;6.732;2022-10-04T07:14:44;13.40;99.90
2571;DHT22;1295;51.130;6.732;2022-10-04T07:17:10;13.40;99.90
2571;DHT22;1295;51.130;6.732;2022-10-04T07:19:44;13.30;99.90
2571;DHT22;1295;51.130;6.732;2022-10-04T07:22:13;13.30;99.90
2571;DHT22;1295;51.130;6.732;2022-10-04T07:25:04;13.40;99.90
2571;DHT22;1295;51.130;6.732;2022-10-04T07:27:33;13.50;99.90
2571;DHT22;1295;51.130;6.732;2022-10-04T07:29:58;13.50;99.90
2571;DHT22;1295;51.130;6.732;2022-10-04T07:32:26;13.20;99.90
2571;DHT22;1295;51.130;6.732;2022-10-04T07:34:53;13.20;99.90
2571;DHT22;1295;51.130;6.732;2022-10-04T07:37:17;13.40;99.90
2571;DHT22;1295;51.130;6.732;2022-10-04T07:39:52;13.40;99.90
2571;DHT22;1295;51.130;6.732;2022-10-04T07:42:24;13.40;99.90
2571;DHT22;1295;51.130;6.732;2022-10-04T07:44:53;13.40;99.90
2571;DHT22;1295;51.130;6.732;2022-10-04T07:47:18;13.40;99.90
2571;DHT22;1295;51.130;6.732;2022-10-04T07:49:43;13.40;99.90
2571;DHT22;1295;51.130;6.732;2022-10-04T07:52:19;13.40;99.90
2571;DHT22;1295;51.130;6.732;2022-10-04T07:54:50;13.00;99.90
2571;DHT22;1295;51.130;6.732;2022-10-04T07:57:27;13.00;99.90
2571;DHT22;1295;51.130;6.732;2022-10-04T07:59:55;13.20;99.90
2571;DHT22;1295;51.130;6.732;2022-10-04T08:02:22;13.40;99.90
2571;DHT22;1295;51.130;6.732;2022-10-04T08:04:51;13.20;99.90
2571;DHT22;1295;51.130;6.732;2022-10-04T08:07:15;13.30;99.90
2571;DHT22;1295;51.130;6.732;2022-10-04T08:09:42;13.40;99.90
2571;DHT22;1295;51.130;6.732;2022-10-04T08:12:20;13.20;99.90
2571;DHT22;1295;51.130;6.732;2022-10-04T08:15:07;13.10;99.90
2571;DHT22;1295;51.130;6.732;2022-10-04T08:17:32;13.50;99.90
2571;DHT22;1295;51.130;6.732;2022-10-04T08:20:00;13.50;99.90
2571;DHT22;1295;51.130;6.732;2022-10-04T08:22:41;13.50;99.90
2571;DHT22;1295;51.130;6.732;2022-10-04T08:25:20;13.60;99.90
2571;DHT22;1295;51.130;6.732;2022-10-04T08:27:54;13.70;99.90
2571;DHT22;1295;51.130;6.732;2022-10-04T08:30:26;13.80;99.90
2571;DHT22;1295;51.130;6.732;2022-10-04T08:32:58;13.90;99.90
2571;DHT22;1295;51.130;6.732;2022-10-04T08:35:26;14.00;99.90
2571;DHT22;1295;51.130;6.732;2022-10-04T08:38:15;14.10;99.90
2571;DHT22;1295;51.130;6.732;2022-10-04T08:43:39;14.30;99.90
2571;DHT22;1295;51.130;6.732;2022-10-04T08:46:12;14.30;99.90
2571;DHT22;1295;51.130;6.732;2022-10-04T08:48:50;14.30;99.90
2571;DHT22;1295;51.130;6.732;2022-10-04T08:51:21;14.20;99.90
2571;DHT22;1295;51.130;6.732;2022-10-04T08:54:01;14.20;99.90
2571;DHT22;1295;51.130;6.732;2022-10-04T08:56:39;14.40;99.90
2571;DHT22;1295;51.130;6.732;2022-10-04T09:01:50;14.80;99.90
2571;DHT22;1295;51.130;6.732;2022-10-04T09:04:20;15.30;99.90
2571;DHT22;1295;51.130;6.732;2022-10-04T09:06:42;15.20;99.90
2571;DHT22;1295;51.130;6.732;2022-10-04T09:09:29;14.90;99.90
2571;DHT22;1295;51.130;6.732;2022-10-04T09:14:43;15.20;99.90
2571;DHT22;1295;51.130;6.732;2022-10-04T09:17:18;15.50;99.90
2571;DHT22;1295;51.130;6.732;2022-10-04T09:22:45;15.60;99.90
2571;DHT22;1295;51.130;6.732;2022-10-04T09:25:24;15.50;99.90
2571;DHT22;1295;51.130;6.732;2022-10-04T09:28:08;17.10;99.90
2571;DHT22;1295;51.130;6.732;2022-10-04T09:30:44;16.50;99.90
2571;DHT22;1295;51.130;6.732;2022-10-04T09:36:06;16.30;99.90
2571;DHT22;1295;51.130;6.732;2022-10-04T09:38:40;16.30;99.90
2571;DHT22;1295;51.130;6.732;2022-10-04T09:41:10;16.00;99.90
2571;DHT22;1295;51.130;6.732;2022-10-04T09:43:48;15.70;99.90
2571;DHT22;1295;51.130;6.732;2022-10-04T09:46:30;16.30;99.90
2571;DHT22;1295;51.130;6.732;2022-10-04T09:51:34;16.10;99.90
2571;DHT22;1295;51.130;6.732;2022-10-04T10:00:05;16.20;99.90
2571;DHT22;1295;51.130;6.732;2022-10-04T10:05:26;15.80;99.90
2571;DHT22;1295;51.130;6.732;2022-10-04T10:07:53;15.90;99.90
2571;DHT22;1295;51.130;6.732;2022-10-04T10:13:23;16.60;99.90
2571;DHT22;1295;51.130;6.732;2022-10-04T10:18:59;17.40;99.90
2571;DHT22;1295;51.130;6.732;2022-10-04T10:21:38;17.20;99.90
2571;DHT22;1295;51.130;6.732;2022-10-04T10:24:06;16.90;99.90
2571;DHT22;1295;51.130;6.732;2022-10-04T10:26:41;16.40;99.90
2571;DHT22;1295;51.130;6.732;2022-10-04T10:29:27;16.40;99.90
2571;DHT22;1295;51.130;6.732;2022-10-04T10:31:58;16.70;99.90
2571;DHT22;1295;51.130;6.732;2022-10-04T10:34:35;17.10;99.90
2571;DHT22;1295;51.130;6.732;2022-10-04T10:37:08;17.10;99.90
2571;DHT22;1295;51.130;6.732;2022-10-04T10:40:52;16.30;99.90
2571;DHT22;1295;51.130;6.732;2022-10-04T10:45:41;17.10;99.90
2571;DHT22;1295;51.130;6.732;2022-10-04T10:48:07;20.70;99.90
2571;DHT22;1295;51.130;6.732;2022-10-04T10:50:43;17.50;99.90
2571;DHT22;1295;51.130;6.732;2022-10-04T10:53:11;17.40;99.90
2571;DHT22;1295;51.130;6.732;2022-10-04T10:55:56;17.10;99.90
2571;DHT22;1295;51.130;6.732;2022-10-04T11:03:44;17.40;99.90
2571;DHT22;1295;51.130;6.732;2022-10-04T11:06:12;18.00;99.90
2571;DHT22;1295;51.130;6.732;2022-10-04T11:09:05;18.10;99.90
2571;DHT22;1295;51.130;6.732;2022-10-04T11:12:51;18.00;99.90
2571;DHT22;1295;51.130;6.732;2022-10-04T11:14:29;17.90;99.90
2571;DHT22;1295;51.130;6.732;2022-10-04T11:20:14;20.50;99.90
2571;DHT22;1295;51.130;6.732;2022-10-04T11:28:12;20.10;99.90
2571;DHT22;1295;51.130;6.732;2022-10-04T11:33:52;18.80;99.90
2571;DHT22;1295;51.130;6.732;2022-10-04T11:36:04;17.90;99.90
2571;DHT22;1295;51.130;6.732;2022-10-04T11:41:13;19.90;99.90
2571;DHT22;1295;51.130;6.732;2022-10-04T11:43:56;19.90;99.90
2571;DHT22;1295;51.130;6.732;2022-10-04T11:46:32;19.80;99.90
2571;DHT22;1295;51.130;6.732;2022-10-04T11:49:05;18.40;99.90
2571;DHT22;1295;51.130;6.732;2022-10-04T12:00:24;21.10;99.90
2571;DHT22;1295;51.130;6.732;2022-10-04T12:03:16;21.00;99.90
2571;DHT22;1295;51.130;6.732;2022-10-04T12:05:52;19.50;99.90
2571;DHT22;1295;51.130;6.732;2022-10-04T12:11:22;18.10;99.90
2571;DHT22;1295;51.130;6.732;2022-10-04T12:14:57;19.40;99.90
2571;DHT22;1295;51.130;6.732;2022-10-04T12:19:48;19.60;99.90
2571;DHT22;1295;51.130;6.732;2022-10-04T12:23:03;19.50;99.90
2571;DHT22;1295;51.130;6.732;2022-10-04T12:25:25;22.10;99.90
2571;DHT22;1295;51.130;6.732;2022-10-04T12:27:52;22.10;99.90
2571;DHT22;1295;51.130;6.732;2022-10-04T12:30:20;20.40;99.90
2571;DHT22;1295;51.130;6.732;2022-10-04T12:32:53;21.90;99.90
2571;DHT22;1295;51.130;6.732;2022-10-04T12:35:22;22.30;99.90
2571;DHT22;1295;51.130;6.732;2022-10-04T12:38:23;19.50;99.90
2571;DHT22;1295;51.130;6.732;2022-10-04T12:40:33;19.80;99.90
2571;DHT22;1295;51.130;6.732;2022-10-04T12:43:00;21.30;99.90
2571;DHT22;1295;51.130;6.732;2022-10-04T12:45:31;19.80;99.90
2571;DHT22;1295;51.130;6.732;2022-10-04T12:47:56;20.10;99.90
2571;DHT22;1295;51.130;6.732;2022-10-04T12:50:55;19.60;99.90
2571;DHT22;1295;51.130;6.732;2022-10-04T12:55:50;20.20;99.90
2571;DHT22;1295;51.130;6.732;2022-10-04T12:58:38;22.30;99.90
2571;DHT22;1295;51.130;6.732;2022-10-04T13:00:58;21.50;99.90
2571;DHT22;1295;51.130;6.732;2022-10-04T13:03:57;20.80;99.90
2571;DHT22;1295;51.130;6.732;2022-10-04T13:06:18;20.80;99.90
2571;DHT22;1295;51.130;6.732;2022-10-04T13:08:48;21.00;99.90
2571;DHT22;1295;51.130;6.732;2022-10-04T13:11:20;21.70;99.90
2571;DHT22;1295;51.130;6.732;2022-10-04T13:14:21;21.70;99.90
2571;DHT22;1295;51.130;6.732;2022-10-04T13:16:37;21.60;99.90
2571;DHT22;1295;51.130;6.732;2022-10-04T13:21:54;21.20;99.90
2571;DHT22;1295;51.130;6.732;2022-10-04T13:27:01;20.90;99.90
2571;DHT22;1295;51.130;6.732;2022-10-04T13:29:32;19.90;99.90
2571;DHT22;1295;51.130;6.732;2022-10-04T13:32:01;19.50;99.90
2571;DHT22;1295;51.130;6.732;2022-10-04T13:34:40;19.80;99.90
2571;DHT22;1295;51.130;6.732;2022-10-04T13:37:23;18.90;99.90
2571;DHT22;1295;51.130;6.732;2022-10-04T13:39:56;19.00;99.90
2571;DHT22;1295;51.130;6.732;2022-10-04T13:42:30;19.10;99.90
2571;DHT22;1295;51.130;6.732;2022-10-04T13:45:00;19.30;99.90
2571;DHT22;1295;51.130;6.732;2022-10-04T13:47:35;19.60;99.90
2571;DHT22;1295;51.130;6.732;2022-10-04T13:50:23;20.60;99.90
2571;DHT22;1295;51.130;6.732;2022-10-04T13:53:00;20.50;99.90
2571;DHT22;1295;51.130;6.732;2022-10-04T13:55:35;19.80;99.90
2571;DHT22;1295;51.130;6.732;2022-10-04T13:58:43;19.70;99.90
2571;DHT22;1295;51.130;6.732;2022-10-04T14:03:48;20.00;99.90
2571;DHT22;1295;51.130;6.732;2022-10-04T14:06:19;20.50;99.90
2571;DHT22;1295;51.130;6.732;2022-10-04T14:09:05;19.20;99.90
2571;DHT22;1295;51.130;6.732;2022-10-04T14:12:06;20.10;99.90
2571;DHT22;1295;51.130;6.732;2022-10-04T14:14:17;20.10;99.90
2571;DHT22;1295;51.130;6.732;2022-10-04T14:16:49;20.40;99.90
2571;DHT22;1295;51.130;6.732;2022-10-04T14:19:27;21.10;99.90
2571;DHT22;1295;51.130;6.732;2022-10-04T14:22:01;20.50;99.90
2571;DHT22;1295;51.130;6.732;2022-10-04T14:24:41;19.80;99.90
2571;DHT22;1295;51.130;6.732;2022-10-04T14:30:20;18.40;99.90
2571;DHT22;1295;51.130;6.732;2022-10-04T14:35:49;18.40;99.90
2571;DHT22;1295;51.130;6.732;2022-10-04T14:38:20;20.10;99.90
2571;DHT22;1295;51.130;6.732;2022-10-04T14:40:48;20.00;99.90
2571;DHT22;1295;51.130;6.732;2022-10-04T14:43:26;20.80;99.90
2571;DHT22;1295;51.130;6.732;2022-10-04T14:48:41;19.80;99.90
2571;DHT22;1295;51.130;6.732;2022-10-04T14:51:46;20.70;99.90
2571;DHT22;1295;51.130;6.732;2022-10-04T14:54:07;20.60;99.90
2571;DHT22;1295;51.130;6.732;2022-10-04T14:56:38;18.90;99.90
2571;DHT22;1295;51.130;6.732;2022-10-04T14:59:15;19.10;99.90
2571;DHT22;1295;51.130;6.732;2022-10-04T15:01:36;19.10;99.90
2571;DHT22;1295;51.130;6.732;2022-10-04T15:04:17;20.00;99.90
2571;DHT22;1295;51.130;6.732;2022-10-04T15:07:00;19.80;99.90
2571;DHT22;1295;51.130;6.732;2022-10-04T15:09:40;19.50;99.90
2571;DHT22;1295;51.130;6.732;2022-10-04T15:14:36;19.10;99.90
2571;DHT22;1295;51.130;6.732;2022-10-04T15:17:03;19.10;99.90
2571;DHT22;1295;51.130;6.732;2022-10-04T15:20:16;19.30;99.90
2571;DHT22;1295;51.130;6.732;2022-10-04T15:22:24;19.00;99.90
2571;DHT22;1295;51.130;6.732;2022-10-04T15:24:50;19.60;99.90
2571;DHT22;1295;51.130;6.732;2022-10-04T15:27:35;20.10;99.90
2571;DHT22;1295;51.130;6.732;2022-10-04T15:35:23;19.00;99.90
2571;DHT22;1295;51.130;6.732;2022-10-04T15:38:14;19.00;99.90
2571;DHT22;1295;51.130;6.732;2022-10-04T15:40:53;19.20;99.90
2571;DHT22;1295;51.130;6.732;2022-10-04T15:43:26;19.20;99.90
2571;DHT22;1295;51.130;6.732;2022-10-04T15:45:58;18.60;99.90
2571;DHT22;1295;51.130;6.732;2022-10-04T15:48:24;18.40;99.90
2571;DHT22;1295;51.130;6.732;2022-10-04T15:50:59;18.80;99.90
2571;DHT22;1295;51.130;6.732;2022-10-04T15:59:11;19.00;99.90
2571;DHT22;1295;51.130;6.732;2022-10-04T16:01:39;18.80;99.90
2571;DHT22;1295;51.130;6.732;2022-10-04T16:06:45;18.40;99.90
2571;DHT22;1295;51.130;6.732;2022-10-04T16:09:15;18.20;99.90
2571;DHT22;1295;51.130;6.732;2022-10-04T16:14:34;18.00;99.90
2571;DHT22;1295;51.130;6.732;2022-10-04T16:19:43;17.90;99.90
2571;DHT22;1295;51.130;6.732;2022-10-04T16:22:10;17.90;99.90
2571;DHT22;1295;51.130;6.732;2022-10-04T16:24:39;17.90;99.90
2571;DHT22;1295;51.130;6.732;2022-10-04T16:27:07;17.90;99.90
2571;DHT22;1295;51.130;6.732;2022-10-04T16:29:38;17.80;99.90
2571;DHT22;1295;51.130;6.732;2022-10-04T16:32:10;17.80;99.90
2571;DHT22;1295;51.130;6.732;2022-10-04T16:34:51;17.80;99.90
2571;DHT22;1295;51.130;6.732;2022-10-04T16:37:32;17.80;99.90
2571;DHT22;1295;51.130;6.732;2022-10-04T16:40:14;17.80;99.90
2571;DHT22;1295;51.130;6.732;2022-10-04T16:45:25;17.80;99.90
2571;DHT22;1295;51.130;6.732;2022-10-04T16:47:29;17.80;99.90
2571;DHT22;1295;51.130;6.732;2022-10-04T16:49:52;17.70;99.90
2571;DHT22;1295;51.130;6.732;2022-10-04T16:52:41;17.70;99.90
2571;DHT22;1295;51.130;6.732;2022-10-04T16:55:32;17.70;99.90
2571;DHT22;1295;51.130;6.732;2022-10-04T17:00:35;17.70;99.90
2571;DHT22;1295;51.130;6.732;2022-10-04T17:05:53;17.70;99.90
2571;DHT22;1295;51.130;6.732;2022-10-04T17:08:20;17.70;99.90
2571;DHT22;1295;51.130;6.732;2022-10-04T17:16:12;17.60;99.90
2571;DHT22;1295;51.130;6.732;2022-10-04T17:18:49;17.60;99.90
2571;DHT22;1295;51.130;6.732;2022-10-04T17:21:31;17.60;99.90
2571;DHT22;1295;51.130;6.732;2022-10-04T17:31:56;17.40;99.90
2571;DHT22;1295;51.130;6.732;2022-10-04T17:34:31;17.50;99.90
2571;DHT22;1295;51.130;6.732;2022-10-04T17:36:54;17.50;99.90
2571;DHT22;1295;51.130;6.732;2022-10-04T17:39:30;17.50;99.90
2571;DHT22;1295;51.130;6.732;2022-10-04T17:42:15;17.50;99.90
2571;DHT22;1295;51.130;6.732;2022-10-04T17:44:59;17.50;99.90
2571;DHT22;1295;51.130;6.732;2022-10-04T17:47:35;17.50;99.90
2571;DHT22;1295;51.130;6.732;2022-10-04T17:50:02;17.50;99.90
2571;DHT22;1295;51.130;6.732;2022-10-04T17:52:39;17.50;99.90
2571;DHT22;1295;51.130;6.732;2022-10-04T17:55:11;17.50;99.90
2571;DHT22;1295;51.130;6.732;2022-10-04T17:58:01;17.50;99.90
2571;DHT22;1295;51.130;6.732;2022-10-04T18:00:24;17.50;99.90
2571;DHT22;1295;51.130;6.732;2022-10-04T18:05:52;17.50;99.90
2571;DHT22;1295;51.130;6.732;2022-10-04T18:08:43;17.50;99.90
2571;DHT22;1295;51.130;6.732;2022-10-04T18:16:23;17.40;99.90
2571;DHT22;1295;51.130;6.732;2022-10-04T18:18:47;17.40;99.90
2571;DHT22;1295;51.130;6.732;2022-10-04T18:21:25;17.40;99.90
2571;DHT22;1295;51.130;6.732;2022-10-04T18:23:51;17.40;99.90
2571;DHT22;1295;51.130;6.732;2022-10-04T18:26:16;17.40;99.90
2571;DHT22;1295;51.130;6.732;2022-10-04T18:28:42;17.40;99.90
2571;DHT22;1295;51.130;6.732;2022-10-04T18:31:22;17.30;99.90
2571;DHT22;1295;51.130;6.732;2022-10-04T18:33:47;17.30;99.90
2571;DHT22;1295;51.130;6.732;2022-10-04T18:36:14;17.30;99.90
2571;DHT22;1295;51.130;6.732;2022-10-04T18:38:40;17.30;99.90
2571;DHT22;1295;51.130;6.732;2022-10-04T18:41:15;17.30;99.90
2571;DHT22;1295;51.130;6.732;2022-10-04T18:43:40;17.30;99.90
2571;DHT22;1295;51.130;6.732;2022-10-04T18:46:16;17.30;99.90
2571;DHT22;1295;51.130;6.732;2022-10-04T18:48:50;17.30;99.90
2571;DHT22;1295;51.130;6.732;2022-10-04T18:51:20;17.30;99.90
2571;DHT22;1295;51.130;6.732;2022-10-04T18:53:45;17.30;99.90
2571;DHT22;1295;51.130;6.732;2022-10-04T18:56:10;17.30;99.90
2571;DHT22;1295;51.130;6.732;2022-10-04T19:01:26;17.30;99.90
2571;DHT22;1295;51.130;6.732;2022-10-04T19:03:54;17.30;99.90
2571;DHT22;1295;51.130;6.732;2022-10-04T19:06:21;17.30;99.90
2571;DHT22;1295;51.130;6.732;2022-10-04T19:08:48;17.30;99.90
2571;DHT22;1295;51.130;6.732;2022-10-04T19:11:11;17.30;99.90
2571;DHT22;1295;51.130;6.732;2022-10-04T19:14:50;17.30;99.90
2571;DHT22;1295;51.130;6.732;2022-10-04T19:16:33;17.20;99.90
2571;DHT22;1295;51.130;6.732;2022-10-04T19:19:17;17.20;99.90
2571;DHT22;1295;51.130;6.732;2022-10-04T19:21:47;17.20;99.90